Brilliance Of The Seas — C6SJ5 — position and weather

sailwx.info

Track history (hours):
 
Tides and Currents Weather Stations Pressure Air Temp Water Temp Dewpoint Dewpoint Depression Visibility Wind Speed Wind Dir Waves Ship Positions

Brilliance Of The Seas

Operator: Royal Caribbean Cruises Ltd

Last reported at 2016-Aug-27 01:04 UTC. Time now 2016-Aug-27 09:56 UTC.
Position N 41°25' E 012°02'.

Type: Ship. MMSI: 311361000.

Date/timePositionNaut miles runAvg speedWind from/ knotsBaromVisibWave heightAir tempDewpointWater temp
2016-Aug-27 01:04N 41°25' E 012°02'4216.9
2016-Aug-26 22:33N 40°52' E 012°37'3517.1
2016-Aug-26 20:31N 40°41' E 013°21'1616.6
2016-Aug-26 19:34N 40°36' E 013°41'1918.5
2016-Aug-26 18:33N 40°31' E 014°04'29 6.4
2016-Aug-26 14:00N 40°36' E 014°42'42 3.2 280 / 51011.027.0 31.0 25.0
2016-Aug-26 01:00N 39°54' E 014°48'5719.0 090 / 91010.010.8 1.025.0 24.0
2016-Aug-25 22:00N 39°00' E 015°12'2211.4 350 / 61010.0 2.2 25.925.526.6
2016-Aug-25 20:05N 38°42' E 015°28'1416.5
2016-Aug-25 19:14N 38°31' E 015°39'1116.5
2016-Aug-25 18:34N 38°20' E 015°43'1515.2
2016-Aug-25 17:34N 38°06' E 015°37'1413.8
2016-Aug-25 16:33N 37°53' E 015°43'3513.7
2016-Aug-25 14:00N 38°06' E 016°24'12618.1 040 / 151007.027.0 1.027.0 24.0
2016-Aug-25 07:00N 39°36' E 018°18'3712.4 330 / 81007.0 5.4 1.025.224.824.8
2016-Aug-25 04:00N 40°12' E 018°30'4020.2 040 / 241005.010.8 1.525.0 24.0
2016-Aug-25 02:00N 40°48' E 018°06'9223.1 030 / 251007.010.8 2.024.0 24.0
2016-Aug-24 22:00N 42°06' E 017°00'8811.0 030 / 191010.0 5.4 24.824.823.8
2016-Aug-24 14:00N 43°30' E 016°24'48 6.0 230 / 71026.027.0 28.0 25.0
2016-Aug-24 06:00N 43°30' E 015°18'4924.6 010 / 231016.0 5.4 24.023.725.0
2016-Aug-24 04:00N 43°42' E 014°12'3919.5 360 / 131018.010.8 1.525.0 24.0
2016-Aug-24 02:00N 44°00' E 013°24'5814.7 030 / 301019.010.8 1.524.0 24.0
2016-Aug-23 22:03N 44°53' E 012°52'817.1
2016-Aug-23 21:33N 45°00' E 012°46'1515.5
2016-Aug-23 20:33N 45°11' E 012°31'1413.6
2016-Aug-23 19:33N 45°25' E 012°27'6 6.0
2016-Aug-23 18:33N 45°26' E 012°18'0 0.1
2016-Aug-23 17:29N 45°26' E 012°19'0 0.0
2016-Aug-23 16:32N 45°26' E 012°19'0 0.0
2016-Aug-23 15:32N 45°26' E 012°19'0 0.0
2016-Aug-23 14:29N 45°26' E 012°19'2 4.3
2016-Aug-23 14:00N 45°24' E 012°18'2 4.7 220 / 61027.027.0 27.0 25.0
2016-Aug-23 13:32N 45°26' E 012°19'0 0.0
2016-Aug-23 12:29N 45°26' E 012°19'0 0.0
2016-Aug-23 11:32N 45°26' E 012°19'0 0.0
2016-Aug-23 10:32N 45°26' E 012°19'0 0.0
2016-Aug-23 09:32N 45°26' E 012°19'0 0.0
2016-Aug-23 08:32N 45°26' E 012°19'0 0.0
2016-Aug-23 07:26N 45°26' E 012°19'0 0.0
2016-Aug-23 06:32N 45°26' E 012°19'0 0.0
2016-Aug-23 05:32N 45°26' E 012°19'0 0.0
2016-Aug-23 04:29N 45°26' E 012°19'0 0.0
2016-Aug-23 03:32N 45°26' E 012°19'0 0.0
2016-Aug-23 02:29N 45°26' E 012°19'2 4.3
2016-Aug-23 02:00N 45°24' E 012°18'2 4.7 020 / 81026.027.0 26.0 24.0
2016-Aug-23 01:32N 45°26' E 012°19'0 0.0
2016-Aug-23 00:32N 45°26' E 012°19'0 0.0
2016-Aug-22 23:32N 45°26' E 012°19'0 0.0
2016-Aug-22 22:32N 45°26' E 012°19'0 0.0
2016-Aug-22 21:32N 45°26' E 012°19'0 0.0
2016-Aug-22 20:32N 45°26' E 012°19'0 0.0
2016-Aug-22 19:32N 45°26' E 012°19'0 0.0
2016-Aug-22 18:32N 45°26' E 012°19'0 0.0
2016-Aug-22 17:32N 45°26' E 012°19'0 0.0
2016-Aug-22 16:31N 45°26' E 012°19'0 0.0
2016-Aug-22 15:31N 45°26' E 012°19'0 0.0
2016-Aug-22 14:26N 45°26' E 012°19'0 0.0
2016-Aug-22 13:32N 45°26' E 012°19'0 0.0
2016-Aug-22 12:34N 45°26' E 012°19'4 4.4
2016-Aug-22 11:33N 45°26' E 012°25'1111.4
2016-Aug-22 10:33N 45°16' E 012°34'1514.6
2016-Aug-22 09:32N 45°06' E 012°49'3815.0
2016-Aug-22 07:00N 44°30' E 013°06'6020.0 060 / 261022.0 5.4 1.523.623.025.4
2016-Aug-22 04:00N 43°48' E 014°06'3511.8 010 / 30 10.8 2.025.0 25.0
2016-Aug-22 01:00N 43°24' E 014°42'10426.0
2016-Aug-21 21:00N 42°36' E 016°48'7619.8 040 / 41008.0 5.4 26.025.625.8
2016-Aug-21 17:08N 42°22' E 018°30'5 9.1
2016-Aug-21 16:34N 42°26' E 018°33'6 6.2
2016-Aug-21 15:34N 42°28' E 018°41'4 3.8
2016-Aug-21 14:27N 42°26' E 018°46'0 0.0
2016-Aug-21 13:33N 42°26' E 018°46'0 0.0
2016-Aug-21 12:33N 42°26' E 018°46'0 0.0
2016-Aug-21 11:34N 42°26' E 018°46'0 0.0
2016-Aug-21 10:33N 42°26' E 018°46'0 0.0
2016-Aug-21 09:34N 42°26' E 018°46'0 0.0
2016-Aug-21 08:34N 42°26' E 018°46'0 0.0
2016-Aug-21 07:33N 42°26' E 018°46'0 0.0
2016-Aug-21 06:34N 42°26' E 018°46'0 0.0
2016-Aug-21 05:34N 42°26' E 018°46'4 4.2
2016-Aug-21 04:34N 42°29' E 018°42'6 5.9
2016-Aug-21 03:34N 42°26' E 018°35'9 9.3
2016-Aug-21 02:33N 42°17' E 018°33'1313.4
2016-Aug-21 01:34N 42°03' E 018°33'4 7.2
2016-Aug-21 01:00N 42°00' E 018°30'1226.4
2016-Aug-21 00:33N 41°49' E 018°33'5515.4
2016-Aug-20 21:00N 40°54' E 018°36'10116.9 010 / 61010.0 5.4 24.023.226.4
2016-Aug-20 15:00N 39°18' E 017°54'4414.8 210 / 11008.027.0 26.8 26.9
2016-Aug-20 12:00N 38°48' E 017°12'8617.1 050 / 131009.027.0 1.026.0 25.0
2016-Aug-20 07:00N 37°48' E 015°54'3213.3 120 / 51009.010.8 26.626.627.2
2016-Aug-20 04:33N 38°18' E 015°39'1616.2
2016-Aug-20 03:34N 38°20' E 015°19'1717.0
2016-Aug-20 02:34N 38°19' E 014°57'1716.8
2016-Aug-20 01:31N 38°20' E 014°35'5 8.8
2016-Aug-20 01:00N 38°18' E 014°30'3020.4 090 / 101010.0 26.0
2016-Aug-19 23:33N 38°24' E 013°53'1716.9
2016-Aug-19 22:34N 38°28' E 013°32'1716.9
2016-Aug-19 21:34N 38°27' E 013°11'1716.8
2016-Aug-19 20:34N 38°27' E 012°49'611.4
2016-Aug-19 20:00N 38°24' E 012°42'1325.6 110 / 151008.0 5.4 26.426.427.3
2016-Aug-19 19:29N 38°28' E 012°26'1616.9
2016-Aug-19 18:31N 38°28' E 012°05'5615.8
2016-Aug-19 15:00N 38°30' E 010°54'4221.1 160 / 101006.027.0 27.2 26.6
2016-Aug-19 13:00N 38°30' E 010°00'510.6 170 / 91007.0 5.4 27.226.727.0
2016-Aug-19 12:30N 38°33' E 009°55'1617.0
2016-Aug-19 11:33N 38°34' E 009°34'1716.8
2016-Aug-19 10:33N 38°35' E 009°13'713.1
2016-Aug-19 10:00N 38°30' E 009°06'1330.2 170 / 41004.027.0 1.026.026.027.0
2016-Aug-19 09:34N 38°36' E 008°51'1221.0
2016-Aug-19 09:00N 38°36' E 008°36'26619.5 010 / 61007.0 5.4 26.026.027.0
2016-Aug-18 19:21N 40°41' E 003°32'1721.9
2016-Aug-18 18:33N 40°49' E 003°12'2221.6
2016-Aug-18 17:33N 41°00' E 002°47'2120.6
2016-Aug-18 16:33N 41°12' E 002°24'1313.4
2016-Aug-18 15:34N 41°20' E 002°10'2 2.1
2016-Aug-18 14:30N 41°22' E 002°11'0 0.0
2016-Aug-18 13:33N 41°22' E 002°11'0 0.0
2016-Aug-18 12:33N 41°22' E 002°11'0 0.0
2016-Aug-18 11:33N 41°22' E 002°11'0 0.0
2016-Aug-18 10:27N 41°22' E 002°11'0 0.0
2016-Aug-18 09:30N 41°22' E 002°11'0 0.0
2016-Aug-18 08:24N 41°22' E 002°11'0 0.0
2016-Aug-18 07:30N 41°22' E 002°11'0 0.0
2016-Aug-18 06:33N 41°22' E 002°11'9 2.1
2016-Aug-18 02:33N 41°14' E 002°15'1615.9
2016-Aug-18 01:33N 41°06' E 002°33'1616.0
2016-Aug-18 00:33N 40°58' E 002°52'1717.1
2016-Aug-17 23:33N 40°49' E 003°11'1716.9
2016-Aug-17 22:33N 40°41' E 003°30'31517.4
2016-Aug-17 04:30N 38°21' E 009°36'2122.1
2016-Aug-17 03:33N 38°15' E 010°02'2521.7
2016-Aug-17 02:23N 38°09' E 010°33'2021.5
2016-Aug-17 01:28N 38°04' E 010°57'  
Track history (hours):
 
Tides and Currents Weather Stations Pressure Air Temp Water Temp Dewpoint Dewpoint Depression Visibility Wind Speed Wind Dir Waves Ship Positions

Brilliance Of The Seas

Operator: Royal Caribbean Cruises Ltd

Last reported at 2016-Aug-27 01:04 UTC. Time now 2016-Aug-27 09:56 UTC.
Position N 41°25' E 012°02'.

Type: Ship. MMSI: 311361000.

Date/timePositionNaut miles runAvg speedWind from/ knotsBaromVisibWave heightAir tempDewpointWater temp
2016-Aug-27 01:04N 41°25' E 012°02'4216.9
2016-Aug-26 22:33N 40°52' E 012°37'3517.1
2016-Aug-26 20:31N 40°41' E 013°21'1616.6
2016-Aug-26 19:34N 40°36' E 013°41'1918.5
2016-Aug-26 18:33N 40°31' E 014°04'29 6.4
2016-Aug-26 14:00N 40°36' E 014°42'42 3.2 280 / 51011.027.0 31.0 25.0
2016-Aug-26 01:00N 39°54' E 014°48'5719.0 090 / 91010.010.8 1.025.0 24.0
2016-Aug-25 22:00N 39°00' E 015°12'2211.4 350 / 61010.0 2.2 25.925.526.6
2016-Aug-25 20:05N 38°42' E 015°28'1416.5
2016-Aug-25 19:14N 38°31' E 015°39'1116.5
2016-Aug-25 18:34N 38°20' E 015°43'1515.2
2016-Aug-25 17:34N 38°06' E 015°37'1413.8
2016-Aug-25 16:33N 37°53' E 015°43'3513.7
2016-Aug-25 14:00N 38°06' E 016°24'12618.1 040 / 151007.027.0 1.027.0 24.0
2016-Aug-25 07:00N 39°36' E 018°18'3712.4 330 / 81007.0 5.4 1.025.224.824.8
2016-Aug-25 04:00N 40°12' E 018°30'4020.2 040 / 241005.010.8 1.525.0 24.0
2016-Aug-25 02:00N 40°48' E 018°06'9223.1 030 / 251007.010.8 2.024.0 24.0
2016-Aug-24 22:00N 42°06' E 017°00'8811.0 030 / 191010.0 5.4 24.824.823.8
2016-Aug-24 14:00N 43°30' E 016°24'48 6.0 230 / 71026.027.0 28.0 25.0
2016-Aug-24 06:00N 43°30' E 015°18'4924.6 010 / 231016.0 5.4 24.023.725.0
2016-Aug-24 04:00N 43°42' E 014°12'3919.5 360 / 131018.010.8 1.525.0 24.0
2016-Aug-24 02:00N 44°00' E 013°24'5814.7 030 / 301019.010.8 1.524.0 24.0
2016-Aug-23 22:03N 44°53' E 012°52'817.1
2016-Aug-23 21:33N 45°00' E 012°46'1515.5
2016-Aug-23 20:33N 45°11' E 012°31'1413.6
2016-Aug-23 19:33N 45°25' E 012°27'6 6.0
2016-Aug-23 18:33N 45°26' E 012°18'0 0.1
2016-Aug-23 17:29N 45°26' E 012°19'0 0.0
2016-Aug-23 16:32N 45°26' E 012°19'0 0.0
2016-Aug-23 15:32N 45°26' E 012°19'0 0.0
2016-Aug-23 14:29N 45°26' E 012°19'2 4.3
2016-Aug-23 14:00N 45°24' E 012°18'2 4.7 220 / 61027.027.0 27.0 25.0
2016-Aug-23 13:32N 45°26' E 012°19'0 0.0
2016-Aug-23 12:29N 45°26' E 012°19'0 0.0
2016-Aug-23 11:32N 45°26' E 012°19'0 0.0
2016-Aug-23 10:32N 45°26' E 012°19'0 0.0
2016-Aug-23 09:32N 45°26' E 012°19'0 0.0
2016-Aug-23 08:32N 45°26' E 012°19'0 0.0
2016-Aug-23 07:26N 45°26' E 012°19'0 0.0
2016-Aug-23 06:32N 45°26' E 012°19'0 0.0
2016-Aug-23 05:32N 45°26' E 012°19'0 0.0
2016-Aug-23 04:29N 45°26' E 012°19'0 0.0
2016-Aug-23 03:32N 45°26' E 012°19'0 0.0
2016-Aug-23 02:29N 45°26' E 012°19'2 4.3
2016-Aug-23 02:00N 45°24' E 012°18'2 4.7 020 / 81026.027.0 26.0 24.0
2016-Aug-23 01:32N 45°26' E 012°19'0 0.0
2016-Aug-23 00:32N 45°26' E 012°19'0 0.0
2016-Aug-22 23:32N 45°26' E 012°19'0 0.0
2016-Aug-22 22:32N 45°26' E 012°19'0 0.0
2016-Aug-22 21:32N 45°26' E 012°19'0 0.0
2016-Aug-22 20:32N 45°26' E 012°19'0 0.0
2016-Aug-22 19:32N 45°26' E 012°19'0 0.0
2016-Aug-22 18:32N 45°26' E 012°19'0 0.0
2016-Aug-22 17:32N 45°26' E 012°19'0 0.0
2016-Aug-22 16:31N 45°26' E 012°19'0 0.0
2016-Aug-22 15:31N 45°26' E 012°19'0 0.0
2016-Aug-22 14:26N 45°26' E 012°19'0 0.0
2016-Aug-22 13:32N 45°26' E 012°19'0 0.0
2016-Aug-22 12:34N 45°26' E 012°19'4 4.4
2016-Aug-22 11:33N 45°26' E 012°25'1111.4
2016-Aug-22 10:33N 45°16' E 012°34'1514.6
2016-Aug-22 09:32N 45°06' E 012°49'3815.0
2016-Aug-22 07:00N 44°30' E 013°06'6020.0 060 / 261022.0 5.4 1.523.623.025.4
2016-Aug-22 04:00N 43°48' E 014°06'3511.8 010 / 30 10.8 2.025.0 25.0
2016-Aug-22 01:00N 43°24' E 014°42'10426.0
2016-Aug-21 21:00N 42°36' E 016°48'7619.8 040 / 41008.0 5.4 26.025.625.8
2016-Aug-21 17:08N 42°22' E 018°30'5 9.1
2016-Aug-21 16:34N 42°26' E 018°33'6 6.2
2016-Aug-21 15:34N 42°28' E 018°41'4 3.8
2016-Aug-21 14:27N 42°26' E 018°46'0 0.0
2016-Aug-21 13:33N 42°26' E 018°46'0 0.0
2016-Aug-21 12:33N 42°26' E 018°46'0 0.0
2016-Aug-21 11:34N 42°26' E 018°46'0 0.0
2016-Aug-21 10:33N 42°26' E 018°46'0 0.0
2016-Aug-21 09:34N 42°26' E 018°46'0 0.0
2016-Aug-21 08:34N 42°26' E 018°46'0 0.0
2016-Aug-21 07:33N 42°26' E 018°46'0 0.0
2016-Aug-21 06:34N 42°26' E 018°46'0 0.0
2016-Aug-21 05:34N 42°26' E 018°46'4 4.2
2016-Aug-21 04:34N 42°29' E 018°42'6 5.9
2016-Aug-21 03:34N 42°26' E 018°35'9 9.3
2016-Aug-21 02:33N 42°17' E 018°33'1313.4
2016-Aug-21 01:34N 42°03' E 018°33'4 7.2
2016-Aug-21 01:00N 42°00' E 018°30'1226.4
2016-Aug-21 00:33N 41°49' E 018°33'5515.4
2016-Aug-20 21:00N 40°54' E 018°36'10116.9 010 / 61010.0 5.4 24.023.226.4
2016-Aug-20 15:00N 39°18' E 017°54'4414.8 210 / 11008.027.0 26.8 26.9
2016-Aug-20 12:00N 38°48' E 017°12'8617.1 050 / 131009.027.0 1.026.0 25.0
2016-Aug-20 07:00N 37°48' E 015°54'3213.3 120 / 51009.010.8 26.626.627.2
2016-Aug-20 04:33N 38°18' E 015°39'1616.2
2016-Aug-20 03:34N 38°20' E 015°19'1717.0
2016-Aug-20 02:34N 38°19' E 014°57'1716.8
2016-Aug-20 01:31N 38°20' E 014°35'5 8.8
2016-Aug-20 01:00N 38°18' E 014°30'3020.4 090 / 101010.0 26.0
2016-Aug-19 23:33N 38°24' E 013°53'1716.9
2016-Aug-19 22:34N 38°28' E 013°32'1716.9
2016-Aug-19 21:34N 38°27' E 013°11'1716.8
2016-Aug-19 20:34N 38°27' E 012°49'611.4
2016-Aug-19 20:00N 38°24' E 012°42'1325.6 110 / 151008.0 5.4 26.426.427.3
2016-Aug-19 19:29N 38°28' E 012°26'1616.9
2016-Aug-19 18:31N 38°28' E 012°05'5615.8
2016-Aug-19 15:00N 38°30' E 010°54'4221.1 160 / 101006.027.0 27.2 26.6
2016-Aug-19 13:00N 38°30' E 010°00'510.6 170 / 91007.0 5.4 27.226.727.0
2016-Aug-19 12:30N 38°33' E 009°55'1617.0
2016-Aug-19 11:33N 38°34' E 009°34'1716.8
2016-Aug-19 10:33N 38°35' E 009°13'713.1
2016-Aug-19 10:00N 38°30' E 009°06'1330.2 170 / 41004.027.0 1.026.026.027.0
2016-Aug-19 09:34N 38°36' E 008°51'1221.0
2016-Aug-19 09:00N 38°36' E 008°36'26619.5 010 / 61007.0 5.4 26.026.027.0
2016-Aug-18 19:21N 40°41' E 003°32'1721.9
2016-Aug-18 18:33N 40°49' E 003°12'2221.6
2016-Aug-18 17:33N 41°00' E 002°47'2120.6
2016-Aug-18 16:33N 41°12' E 002°24'1313.4
2016-Aug-18 15:34N 41°20' E 002°10'2 2.1
2016-Aug-18 14:30N 41°22' E 002°11'0 0.0
2016-Aug-18 13:33N 41°22' E 002°11'0 0.0
2016-Aug-18 12:33N 41°22' E 002°11'0 0.0
2016-Aug-18 11:33N 41°22' E 002°11'0 0.0
2016-Aug-18 10:27N 41°22' E 002°11'0 0.0
2016-Aug-18 09:30N 41°22' E 002°11'0 0.0
2016-Aug-18 08:24N 41°22' E 002°11'0 0.0
2016-Aug-18 07:30N 41°22' E 002°11'0 0.0
2016-Aug-18 06:33N 41°22' E 002°11'9 2.1
2016-Aug-18 02:33N 41°14' E 002°15'1615.9
2016-Aug-18 01:33N 41°06' E 002°33'1616.0
2016-Aug-18 00:33N 40°58' E 002°52'1717.1
2016-Aug-17 23:33N 40°49' E 003°11'1716.9
2016-Aug-17 22:33N 40°41' E 003°30'31517.4
2016-Aug-17 04:30N 38°21' E 009°36'2122.1
2016-Aug-17 03:33N 38°15' E 010°02'2521.7
2016-Aug-17 02:23N 38°09' E 010°33'2021.5
2016-Aug-17 01:28N 38°04' E 010°57'  

Dump ship's entire track history